createdAt,value
2023-05-23T00:00:27.502Z,14.60
2023-05-23T00:05:30.816Z,17.00
2023-05-23T00:10:35.473Z,17.00
2023-05-23T00:15:39.127Z,17.50
2023-05-23T00:20:42.782Z,17.10
2023-05-23T00:25:53.059Z,16.70
2023-05-23T00:30:56.655Z,16.50
2023-05-23T00:36:00.625Z,16.60
2023-05-23T00:41:05.741Z,16.70
2023-05-23T00:46:09.895Z,16.60
2023-05-23T00:51:13.591Z,16.70
2023-05-23T00:56:18.394Z,16.80
2023-05-23T01:01:22.286Z,16.90
2023-05-23T01:06:25.768Z,17.50
2023-05-23T01:11:36.395Z,16.80
2023-05-23T01:16:49.455Z,16.60
2023-05-23T01:21:56.587Z,16.50
2023-05-23T01:27:22.080Z,16.30
2023-05-23T01:32:28.478Z,16.30
2023-05-23T01:37:33.681Z,16.30
2023-05-23T01:42:37.128Z,16.30
2023-05-23T01:47:42.690Z,16.30
2023-05-23T01:52:47.546Z,16.30
2023-05-23T01:57:52.487Z,16.20
2023-05-23T02:02:57.406Z,16.00
2023-05-23T02:08:00.893Z,15.90
2023-05-23T02:13:04.254Z,13.00
2023-05-23T02:18:09.020Z,15.90
2023-05-23T02:23:16.323Z,16.00
2023-05-23T02:28:19.696Z,16.00
2023-05-23T02:33:27.088Z,15.90
2023-05-23T02:38:30.994Z,15.90
2023-05-23T02:43:34.373Z,15.90
2023-05-23T02:48:40.331Z,16.00
2023-05-23T02:53:43.876Z,15.90
2023-05-23T02:58:47.428Z,15.90
2023-05-23T03:03:52.193Z,16.00
2023-05-23T03:08:55.794Z,16.00
2023-05-23T03:13:59.221Z,16.10
2023-05-23T03:19:04.973Z,16.10
2023-05-23T03:24:08.566Z,16.20
2023-05-23T03:29:12.199Z,16.00
2023-05-23T03:34:17.007Z,15.90
2023-05-23T03:39:20.658Z,15.90
2023-05-23T03:44:24.125Z,15.90
2023-05-23T03:49:29.227Z,16.10
2023-05-23T03:54:33.158Z,16.00
2023-05-23T03:59:39.871Z,16.00
2023-05-23T04:04:51.866Z,15.90
2023-05-23T04:09:55.761Z,15.90
2023-05-23T04:14:59.789Z,15.90
2023-05-23T04:20:06.303Z,16.00
2023-05-23T04:25:10.903Z,15.90
2023-05-23T04:30:22.393Z,15.90
2023-05-23T04:35:29.372Z,15.90
2023-05-23T04:40:32.849Z,15.80
2023-05-23T04:45:58.969Z,15.70
2023-05-23T04:51:15.537Z,15.80
2023-05-23T04:56:28.503Z,15.90
2023-05-23T05:01:32.508Z,16.00
2023-05-23T05:06:38.288Z,16.10
2023-05-23T05:11:41.787Z,16.00
2023-05-23T05:16:46.124Z,15.60
2023-05-23T05:21:51.347Z,16.10
2023-05-23T05:26:55.469Z,16.30
2023-05-23T05:31:59.130Z,16.60
2023-05-23T05:37:04.137Z,17.20
2023-05-23T05:42:07.939Z,17.10
2023-05-23T05:47:13.268Z,17.50
2023-05-23T05:52:18.138Z,17.60
2023-05-23T05:57:21.534Z,18.00
2023-05-23T06:02:25.047Z,18.50
2023-05-23T06:07:30.518Z,18.50
2023-05-23T06:12:33.960Z,19.50
2023-05-23T06:17:37.677Z,19.10
2023-05-23T06:22:42.657Z,19.00
2023-05-23T06:27:46.397Z,18.70
2023-05-23T06:32:49.754Z,18.80
2023-05-23T06:37:56.519Z,18.90
2023-05-23T06:42:59.897Z,19.10
2023-05-23T06:48:17.278Z,19.60
2023-05-23T06:53:23.135Z,19.60
2023-05-23T06:58:27.356Z,20.00
2023-05-23T07:03:33.870Z,20.00
2023-05-23T07:08:42.788Z,20.00
2023-05-23T07:13:46.795Z,20.90
2023-05-23T07:18:59.477Z,22.60
2023-05-23T07:24:04.512Z,21.70
2023-05-23T07:29:08.878Z,21.20
2023-05-23T07:34:13.277Z,21.30
2023-05-23T07:39:31.424Z,21.40
2023-05-23T07:44:38.304Z,21.20
2023-05-23T07:49:42.308Z,20.60
2023-05-23T07:54:47.149Z,20.50
2023-05-23T07:59:51.148Z,20.70
2023-05-23T08:04:54.698Z,20.50
2023-05-23T08:09:59.735Z,20.50
2023-05-23T08:15:04.878Z,21.00
2023-05-23T08:20:14.928Z,21.70
2023-05-23T08:25:20.036Z,22.30
2023-05-23T08:30:25.476Z,22.50
2023-05-23T08:35:33.757Z,23.60
2023-05-23T08:40:41.318Z,22.80
2023-05-23T08:45:50.539Z,23.10
2023-05-23T08:50:54.779Z,24.60
2023-05-23T08:56:02.950Z,22.60
2023-05-23T09:01:18.459Z,22.40
2023-05-23T09:06:23.105Z,22.50
2023-05-23T09:11:28.157Z,22.90
2023-05-23T09:16:36.341Z,23.00
2023-05-23T09:21:46.622Z,23.70
2023-05-23T09:26:57.040Z,23.20
2023-05-23T09:32:11.609Z,23.40
2023-05-23T09:37:19.683Z,24.50
2023-05-23T09:42:24.781Z,24.90
2023-05-23T09:47:28.412Z,23.60
2023-05-23T09:52:38.558Z,22.90
2023-05-23T09:57:45.470Z,22.70
2023-05-23T10:03:11.137Z,23.00
2023-05-23T10:08:17.420Z,23.80
2023-05-23T10:13:23.406Z,23.90
2023-05-23T10:18:30.806Z,23.40
2023-05-23T10:23:35.294Z,22.20
2023-05-23T10:28:41.592Z,22.70
2023-05-23T10:33:53.064Z,23.60
2023-05-23T10:39:03.232Z,23.70
2023-05-23T10:44:24.532Z,24.30
2023-05-23T10:49:40.036Z,24.80
2023-05-23T10:54:45.419Z,24.90
2023-05-23T10:59:52.077Z,23.80
2023-05-23T11:05:19.772Z,24.10
2023-05-23T11:10:23.146Z,24.90
2023-05-23T11:15:27.899Z,24.30
2023-05-23T11:20:32.282Z,22.90
2023-05-23T11:25:43.876Z,22.50
2023-05-23T11:30:51.241Z,23.10
2023-05-23T11:35:54.842Z,24.30
2023-05-23T11:40:58.315Z,26.00
2023-05-23T11:46:09.595Z,25.90
2023-05-23T11:51:13.293Z,25.90
2023-05-23T11:56:20.211Z,24.90
2023-05-23T12:01:31.397Z,26.50
2023-05-23T12:06:35.200Z,26.30
2023-05-23T12:11:40.654Z,24.90
2023-05-23T12:16:47.745Z,24.00
2023-05-23T12:21:51.488Z,23.80
2023-05-23T12:26:56.088Z,24.20
2023-05-23T12:32:01.221Z,23.70
2023-05-23T12:37:18.918Z,26.00
2023-05-23T12:42:23.363Z,26.70
2023-05-23T12:47:28.208Z,26.60
2023-05-23T12:52:31.646Z,27.30
2023-05-23T12:57:36.256Z,22.50
2023-05-23T13:02:41.014Z,27.40
2023-05-23T13:07:44.475Z,25.50
2023-05-23T13:12:47.821Z,25.00
2023-05-23T13:17:52.972Z,27.10
2023-05-23T13:22:56.172Z,28.20
2023-05-23T13:27:59.641Z,31.20
2023-05-23T13:33:05.076Z,27.30
2023-05-23T13:38:08.489Z,27.00
2023-05-23T13:43:11.845Z,26.00
2023-05-23T13:48:16.751Z,26.30
2023-05-23T13:53:21.591Z,26.60
2023-05-23T13:58:24.900Z,27.40
2023-05-23T14:03:29.577Z,27.00
2023-05-23T14:08:33.031Z,26.90
2023-05-23T14:13:36.387Z,26.70
2023-05-23T14:18:41.304Z,25.40
2023-05-23T14:23:44.772Z,26.90
2023-05-23T14:28:48.220Z,26.30
2023-05-23T14:33:53.110Z,27.10
2023-05-23T14:38:56.477Z,21.70
2023-05-23T14:43:59.828Z,23.90
2023-05-23T14:49:04.555Z,23.10
2023-05-23T14:54:07.948Z,22.70
2023-05-23T14:59:11.260Z,22.60
2023-05-23T15:04:16.145Z,22.20
2023-05-23T15:09:19.465Z,22.20
2023-05-23T15:14:23.355Z,21.90
2023-05-23T15:19:28.344Z,23.30
2023-05-23T15:24:31.731Z,23.20
2023-05-23T15:29:39.835Z,22.20
2023-05-23T15:34:44.653Z,22.30
2023-05-23T15:39:48.846Z,21.60
2023-05-23T15:44:52.475Z,21.60
2023-05-23T15:49:57.409Z,21.90
2023-05-23T15:55:01.993Z,22.50
2023-05-23T16:00:06.224Z,22.30
2023-05-23T16:05:16.640Z,21.10
2023-05-23T16:10:20.457Z,17.90
2023-05-23T16:15:24.983Z,21.40
2023-05-23T16:20:29.700Z,21.40
2023-05-23T16:25:33.091Z,21.40
2023-05-23T16:30:36.464Z,21.40
2023-05-23T16:35:41.609Z,21.20
2023-05-23T16:40:45.900Z,21.00
2023-05-23T16:45:49.460Z,20.70
2023-05-23T16:50:54.833Z,20.90
2023-05-23T16:55:58.151Z,20.80
2023-05-23T17:01:01.473Z,20.10
2023-05-23T17:06:06.357Z,20.50
2023-05-23T17:11:09.732Z,20.60
2023-05-23T17:16:14.131Z,20.20
2023-05-23T17:21:18.891Z,17.30
2023-05-23T17:26:22.293Z,20.20
2023-05-23T17:31:25.802Z,20.30
2023-05-23T17:36:31.004Z,20.10
2023-05-23T17:41:34.388Z,20.00
2023-05-23T17:46:37.907Z,19.80
2023-05-23T17:51:43.006Z,19.30
2023-05-23T17:56:46.904Z,23.20
2023-05-23T18:01:50.769Z,19.40
2023-05-23T18:06:55.438Z,19.50
2023-05-23T18:11:59.677Z,19.50
2023-05-23T18:17:03.080Z,19.30
2023-05-23T18:22:07.947Z,19.20
2023-05-23T18:27:11.299Z,19.00
2023-05-23T18:32:14.686Z,18.80
2023-05-23T18:37:19.398Z,18.80
2023-05-23T18:42:22.746Z,18.60
2023-05-23T18:47:26.824Z,18.40
2023-05-23T18:52:33.648Z,18.40
2023-05-23T18:57:36.986Z,18.50
2023-05-23T19:02:44.549Z,18.40
2023-05-23T19:07:49.390Z,18.20
2023-05-23T19:12:52.923Z,18.20
2023-05-23T19:17:56.353Z,18.10
2023-05-23T19:23:01.005Z,13.40
2023-05-23T19:28:04.409Z,17.70
2023-05-23T19:33:07.944Z,17.40
2023-05-23T19:38:12.816Z,17.20
2023-05-23T19:43:16.379Z,16.90
2023-05-23T19:48:19.963Z,16.80
2023-05-23T19:53:25.272Z,16.60
2023-05-23T19:58:28.879Z,16.50
2023-05-23T20:03:32.263Z,16.40
2023-05-23T20:08:36.981Z,16.50
2023-05-23T20:13:40.535Z,14.40
2023-05-23T20:18:44.311Z,16.60
2023-05-23T20:23:49.272Z,16.60
2023-05-23T20:28:52.625Z,16.60
2023-05-23T20:33:56.156Z,16.60
2023-05-23T20:39:01.595Z,16.40
2023-05-23T20:44:05.862Z,16.30
2023-05-23T20:49:09.534Z,16.30
2023-05-23T20:54:14.256Z,16.20
2023-05-23T20:59:18.462Z,16.10
2023-05-23T21:04:21.793Z,15.80
2023-05-23T21:09:26.477Z,15.70
2023-05-23T21:14:44.686Z,15.70
2023-05-23T21:19:47.989Z,15.50
2023-05-23T21:24:52.618Z,15.40
2023-05-23T21:29:56.094Z,15.40
2023-05-23T21:34:59.456Z,15.40
2023-05-23T21:40:04.493Z,15.40
2023-05-23T21:45:09.122Z,15.30
2023-05-23T21:50:12.906Z,15.20
2023-05-23T21:55:17.584Z,15.00
2023-05-23T22:00:22.786Z,15.00
2023-05-23T22:05:26.718Z,15.20
2023-05-23T22:10:32.180Z,15.40
2023-05-23T22:15:36.900Z,15.30
2023-05-23T22:20:40.488Z,15.30
2023-05-23T22:25:45.992Z,15.30
2023-05-23T22:30:49.306Z,15.60
2023-05-23T22:35:52.596Z,15.60
2023-05-23T22:40:57.261Z,15.50
2023-05-23T22:46:00.540Z,15.60
2023-05-23T22:51:04.045Z,15.70
2023-05-23T22:56:08.959Z,15.70
2023-05-23T23:01:12.307Z,15.70
2023-05-23T23:06:15.749Z,15.70
2023-05-23T23:11:21.211Z,15.70
2023-05-23T23:16:24.639Z,15.70
2023-05-23T23:21:27.967Z,15.60
2023-05-23T23:26:32.811Z,15.70
2023-05-23T23:31:36.185Z,15.50
2023-05-23T23:36:39.943Z,15.60
2023-05-23T23:41:44.724Z,15.60
2023-05-23T23:46:48.219Z,15.50
2023-05-23T23:51:52.197Z,15.50
2023-05-23T23:56:57.044Z,17.80
